Time;durP1;ratioP1;P1;durP2;ratioP2;P2;SDS_P1;SDS_P2;PMS_P1;PMS_P2;Temp;Humidity;BMP_temperature;BMP_pressure;BME280_temperature;BME280_humidity;BME280_pressure;Samples;Min_cycle;Max_cycle;Signal;HPM_P1;HPM_P2
2022/08/08 00:02:39;;;;;;;12.63;9.40;;;;;;;21.96;81.30;94921.28;4990670;28;20185;-72
2022/08/08 00:05:24;;;;;;;11.15;7.82;;;;;;;21.91;81.60;94921.28;4990635;28;20188;-73
2022/08/08 00:07:58;;;;;;;13.77;8.95;;;;;;;21.90;81.56;94915.13;4990759;28;20173;-72
2022/08/08 00:10:56;;;;;;;10.70;8.32;;;;;;;21.90;81.26;94920.50;4990386;28;20181;-72
2022/08/08 00:14:05;;;;;;;10.25;8.48;;;;;;;21.86;81.61;94921.34;4969235;28;20193;-73
2022/08/08 00:16:36;;;;;;;10.57;8.07;;;;;;;21.76;81.82;94927.56;4892713;29;20204;-72
2022/08/08 00:19:08;;;;;;;9.98;8.18;;;;;;;21.66;82.44;94930.31;4976942;28;20823;-72
2022/08/08 00:21:41;;;;;;;15.20;9.20;;;;;;;21.61;82.97;94933.03;4994072;28;20188;-72
2022/08/08 00:24:32;;;;;;;10.18;8.65;;;;;;;21.64;83.25;94921.75;4994164;28;20169;-72
2022/08/08 00:27:05;;;;;;;10.80;8.05;;;;;;;21.70;83.15;94936.75;4994288;28;20514;-73
2022/08/08 00:30:06;;;;;;;12.80;8.30;;;;;;;21.69;82.52;94935.13;5003858;28;20294;-72
2022/08/08 00:32:34;;;;;;;17.60;9.35;;;;;;;21.67;82.94;94931.91;5033077;28;20726;-73
2022/08/08 00:35:43;;;;;;;11.70;9.25;;;;;;;21.62;83.40;94932.75;5033427;28;20175;-72
2022/08/08 00:38:30;;;;;;;9.88;7.95;;;;;;;21.66;82.79;94930.31;5015273;28;20688;-72
2022/08/08 00:41:04;;;;;;;10.15;8.15;;;;;;;21.67;83.04;94930.03;5032968;28;20649;-73
2022/08/08 00:43:51;;;;;;;14.50;8.10;;;;;;;21.65;82.63;94934.06;5033183;28;20233;-72
2022/08/08 00:46:44;;;;;;;12.63;8.18;;;;;;;21.63;82.73;94928.19;5033202;28;20175;-72
2022/08/08 00:49:12;;;;;;;19.02;8.90;;;;;;;21.57;82.91;94934.66;5032912;28;20176;-72
2022/08/08 00:52:02;;;;;;;12.00;8.07;;;;;;;21.57;83.15;94937.34;5032841;28;20186;-72
2022/08/08 00:55:00;;;;;;;13.18;7.68;;;;;;;21.53;83.02;94933.63;5032929;28;20652;-73
2022/08/08 00:58:10;;;;;;;14.75;8.38;;;;;;;21.53;83.21;94933.63;5033121;28;20199;-72
2022/08/08 01:01:31;;;;;;;12.10;9.40;;;;;;;21.50;83.07;94932.28;5017150;28;20306;-73
2022/08/08 01:04:24;;;;;;;15.07;11.05;;;;;;;21.50;83.02;94928.81;4952492;29;20182;-72
2022/08/08 01:07:34;;;;;;;22.80;9.65;;;;;;;21.46;82.76;94933.91;5032756;28;20234;-73
2022/08/08 01:10:26;;;;;;;11.48;8.48;;;;;;;21.35;83.11;94933.19;5032501;28;20179;-73
2022/08/08 01:12:51;;;;;;;12.13;8.65;;;;;;;21.33;83.38;94943.38;5032671;28;20195;-73
2022/08/08 01:15:44;;;;;;;12.07;8.82;;;;;;;21.31;83.51;94940.16;5032891;28;20179;-73
2022/08/08 01:18:34;;;;;;;10.45;8.63;;;;;;;21.26;83.57;94944.75;5032447;28;20733;-73
2022/08/08 01:21:22;;;;;;;13.20;9.18;;;;;;;21.19;83.90;94933.53;5025248;28;20645;-72
2022/08/08 01:24:09;;;;;;;13.55;9.25;;;;;;;21.19;84.10;94942.34;5012683;28;20168;-73
2022/08/08 01:27:12;;;;;;;10.57;8.40;;;;;;;21.20;83.96;94943.16;5012554;28;20264;-73
2022/08/08 01:30:26;;;;;;;14.45;8.70;;;;;;;21.20;83.84;94946.63;4926892;29;21175;-73
2022/08/08 01:33:36;;;;;;;11.40;9.35;;;;;;;21.19;83.74;94953.06;4974588;28;20213;-72
2022/08/08 01:36:35;;;;;;;18.95;11.10;;;;;;;21.18;83.69;94951.47;4992922;28;20193;-73
2022/08/08 01:39:18;;;;;;;28.58;13.35;;;;;;;21.15;83.64;94957.34;4992704;28;20185;-72
2022/08/08 01:42:11;;;;;;;27.63;12.50;;;;;;;21.11;83.34;94953.59;4992718;28;20728;-73
2022/08/08 01:45:05;;;;;;;24.98;11.98;;;;;;;21.05;83.79;94958.19;4992589;28;20191;-73
2022/08/08 01:47:57;;;;;;;22.98;12.70;;;;;;;21.05;84.04;94960.06;4992861;28;20242;-73
2022/08/08 01:50:52;;;;;;;20.05;11.20;;;;;;;20.90;84.39;94942.19;4999553;28;20187;-72
2022/08/08 01:53:40;;;;;;;19.40;11.15;;;;;;;20.91;84.93;94956.38;5012156;28;20239;-73
2022/08/08 01:56:06;;;;;;;13.88;9.05;;;;;;;20.91;85.21;94951.81;5012143;28;20638;-72
2022/08/08 01:58:50;;;;;;;17.30;9.45;;;;;;;20.96;84.67;94949.09;4994433;28;20267;-72
2022/08/08 02:01:29;;;;;;;14.57;8.60;;;;;;;20.91;84.85;94953.69;4994327;28;20191;-72
2022/08/08 02:04:04;;;;;;;10.35;8.05;;;;;;;20.86;84.98;94953.69;5011740;28;20192;-72
2022/08/08 02:06:53;;;;;;;11.38;8.45;;;;;;;20.86;84.92;94954.50;5011914;28;20183;-72
2022/08/08 02:09:44;;;;;;;12.80;8.38;;;;;;;20.85;84.59;94960.13;5011639;28;20173;-72
2022/08/08 02:12:21;;;;;;;11.20;7.95;;;;;;;20.87;84.93;94966.00;5011545;28;20176;-72
2022/08/08 02:14:56;;;;;;;11.13;8.48;;;;;;;20.66;84.98;94912.56;5001182;28;20196;-72
2022/08/08 02:17:39;;;;;;;11.05;9.07;;;;;;;20.89;85.22;94963.88;4988784;28;20199;-72
2022/08/08 02:20:11;;;;;;;12.45;8.07;;;;;;;20.90;84.71;94960.13;5011647;28;20192;-73
2022/08/08 02:22:55;;;;;;;10.90;8.00;;;;;;;20.88;84.36;94959.56;4993866;28;20699;-72
2022/08/08 02:25:34;;;;;;;10.15;7.85;;;;;;;20.76;84.46;94943.03;5011461;28;20187;-72
2022/08/08 02:28:09;;;;;;;12.40;7.50;;;;;;;20.84;84.40;94958.53;5011373;28;20180;-73
2022/08/08 02:31:01;;;;;;;12.18;8.13;;;;;;;20.77;83.97;94963.34;5024966;28;20586;-73
2022/08/08 02:33:54;;;;;;;11.95;7.75;;;;;;;20.74;84.69;94964.72;5030937;28;20188;-72
2022/08/08 02:36:39;;;;;;;15.30;8.00;;;;;;;20.77;84.81;94971.38;5030841;28;20164;-73
2022/08/08 02:39:42;;;;;;;11.30;8.48;;;;;;;20.69;84.41;94954.81;5031084;28;20669;-72
2022/08/08 02:42:45;;;;;;;9.75;7.85;;;;;;;20.73;84.27;94968.47;5030803;28;20179;-73
2022/08/08 02:45:44;;;;;;;15.57;8.80;;;;;;;20.70;84.53;94969.78;5030835;28;20255;-73
2022/08/08 02:48:12;;;;;;;13.57;9.18;;;;;;;20.73;84.81;94967.66;5030845;28;20206;-73
2022/08/08 02:51:15;;;;;;;14.38;8.75;;;;;;;20.74;84.29;94974.63;5013022;28;20629;-72
2022/08/08 02:53:40;;;;;;;12.27;9.20;;;;;;;20.57;84.66;94974.91;5012653;28;20262;-73
2022/08/08 02:56:39;;;;;;;11.43;7.57;;;;;;;20.54;84.78;94976.25;5011050;28;20194;-74
2022/08/08 02:59:47;;;;;;;13.10;8.32;;;;;;;20.55;84.70;94977.06;5009673;28;20181;-74
2022/08/08 03:02:39;;;;;;;11.32;8.20;;;;;;;20.51;85.10;94979.44;4980314;28;20196;-74
2022/08/08 03:05:27;;;;;;;12.32;7.88;;;;;;;20.56;84.82;94984.00;5010911;28;20250;-74
2022/08/08 03:08:26;;;;;;;13.43;8.90;;;;;;;20.59;84.17;94983.44;5010823;28;20179;-74
2022/08/08 03:11:29;;;;;;;10.57;7.55;;;;;;;20.57;84.46;94986.41;5010746;28;20207;-74
2022/08/08 03:14:12;;;;;;;9.77;7.90;;;;;;;20.51;84.40;94984.81;5010623;28;20208;-74
2022/08/08 03:16:59;;;;;;;16.20;10.77;;;;;;;20.52;84.66;94993.63;5010714;28;20574;-74
2022/08/08 03:19:36;;;;;;;11.82;8.63;;;;;;;20.51;84.39;94987.47;5010885;28;20649;-74
2022/08/08 03:22:02;;;;;;;12.23;8.88;;;;;;;20.53;84.25;94985.34;5010522;28;20259;-75
2022/08/08 03:24:27;;;;;;;15.38;9.52;;;;;;;20.46;84.36;94976.00;5010727;28;20263;-75
2022/08/08 03:27:04;;;;;;;11.95;8.40;;;;;;;20.52;84.53;94989.09;5010947;28;20180;-75
2022/08/08 03:29:37;;;;;;;18.38;10.02;;;;;;;20.49;84.22;94992.31;5013216;28;20211;-75
2022/08/08 03:34:47;;;;;;;16.67;10.40;;;;;;;20.45;84.20;94990.44;5010569;28;20187;-75
2022/08/08 03:37:16;;;;;;;18.80;9.48;;;;;;;20.43;84.19;94993.38;5009666;28;20593;-75
2022/08/08 03:39:45;;;;;;;15.68;9.43;;;;;;;20.43;84.41;94993.38;5009931;28;20184;-75
2022/08/08 03:42:15;;;;;;;14.98;9.30;;;;;;;20.34;83.77;94987.75;4990494;28;20176;-75
2022/08/08 03:44:41;;;;;;;18.05;10.20;;;;;;;20.48;84.09;95003.28;5012780;28;20661;-75
2022/08/08 03:47:06;;;;;;;10.65;8.98;;;;;;;20.47;83.80;95012.38;5010172;28;20173;-76
2022/08/08 03:49:32;;;;;;;14.43;9.75;;;;;;;20.47;83.71;95007.03;5010733;28;20211;-75
2022/08/08 03:51:57;;;;;;;17.00;10.02;;;;;;;20.45;84.00;95009.97;5010506;28;20180;-75
2022/08/08 03:54:24;;;;;;;19.70;10.23;;;;;;;20.43;84.03;95006.75;5010439;28;20172;-75
2022/08/08 03:56:49;;;;;;;17.55;10.23;;;;;;;20.52;84.01;95010.47;5002268;28;20231;-75
2022/08/08 03:59:15;;;;;;;18.08;9.38;;;;;;;20.61;83.93;95016.09;5013705;28;20212;-74
2022/08/08 04:01:41;;;;;;;29.33;15.57;;;;;;;20.56;83.80;94992.03;5009229;28;20314;-75
2022/08/08 04:04:08;;;;;;;25.52;13.00;;;;;;;20.79;83.06;95017.41;5013450;28;20255;-74
2022/08/08 04:06:34;;;;;;;27.23;16.50;;;;;;;20.86;82.85;95013.38;5010408;28;20669;-74
2022/08/08 04:09:02;;;;;;;26.13;16.95;;;;;;;20.97;81.73;95012.28;5013667;28;20592;-75
2022/08/08 04:11:29;;;;;;;19.23;12.45;;;;;;;21.01;81.58;95010.69;5017179;28;20187;-75
2022/08/08 04:13:55;;;;;;;21.40;11.70;;;;;;;21.00;81.27;94995.69;5013726;28;20253;-75
2022/08/08 04:16:20;;;;;;;29.50;17.25;;;;;;;21.16;80.07;94998.31;5013535;28;20633;-75
2022/08/08 04:18:47;;;;;;;39.72;20.63;;;;;;;21.39;79.92;95017.25;5013532;28;20707;-75
2022/08/08 04:21:13;;;;;;;18.73;10.13;;;;;;;21.50;79.36;95006.50;5015313;28;20176;-75
2022/08/08 04:23:39;;;;;;;18.35;12.05;;;;;;;21.72;78.54;95023.00;5013809;28;20216;-75
2022/08/08 04:26:05;;;;;;;19.10;12.60;;;;;;;21.90;78.54;95019.69;5013262;28;20262;-75
2022/08/08 04:28:30;;;;;;;15.10;9.57;;;;;;;21.98;77.09;95026.38;4996561;28;20307;-74
2022/08/08 04:30:56;;;;;;;15.40;9.02;;;;;;;21.82;76.44;94991.59;5013188;28;21031;-75
2022/08/08 04:33:21;;;;;;;26.48;17.35;;;;;;;22.25;77.01;95029.41;5013057;28;20724;-75
2022/08/08 04:35:47;;;;;;;19.95;11.80;;;;;;;22.29;75.39;95017.03;5013357;28;20571;-74
2022/08/08 04:38:12;;;;;;;17.80;10.48;;;;;;;22.61;74.29;95032.63;5012972;28;20601;-75
2022/08/08 04:40:38;;;;;;;18.25;10.35;;;;;;;22.75;74.28;95019.34;5013114;28;20184;-75
2022/08/08 04:43:04;;;;;;;17.63;10.18;;;;;;;23.00;73.35;95037.94;5013108;28;20187;-75
2022/08/08 04:45:29;;;;;;;20.38;12.65;;;;;;;23.11;72.59;95027.88;5012018;28;20265;-74
2022/08/08 04:47:58;;;;;;;16.38;9.55;;;;;;;23.22;71.75;95029.38;5012755;28;20176;-75
2022/08/08 04:50:24;;;;;;;20.35;11.02;;;;;;;23.47;71.68;95047.09;5012787;28;20262;-74
2022/08/08 04:52:50;;;;;;;17.50;9.82;;;;;;;23.67;70.71;95047.69;5011571;28;20267;-74
2022/08/08 04:55:16;;;;;;;16.08;9.00;;;;;;;23.81;70.62;95049.66;5011978;28;20188;-74
2022/08/08 04:57:41;;;;;;;11.43;8.73;;;;;;;23.98;68.81;95052.66;5012217;28;20582;-74
2022/08/08 05:00:08;;;;;;;16.00;9.18;;;;;;;24.17;68.91;95061.53;5012252;28;20777;-74
2022/08/08 05:02:33;;;;;;;18.13;10.10;;;;;;;24.36;68.77;95058.88;5011523;28;20175;-75
2022/08/08 05:04:58;;;;;;;14.75;8.88;;;;;;;24.44;67.46;95047.44;5012348;28;20557;-75
2022/08/08 05:07:24;;;;;;;13.55;8.40;;;;;;;24.68;67.10;95058.91;5013982;28;20250;-75
2022/08/08 05:09:50;;;;;;;14.43;9.05;;;;;;;24.87;66.33;95058.84;5018729;28;20176;-75
2022/08/08 05:12:15;;;;;;;28.73;18.20;;;;;;;25.00;65.65;95051.91;5011321;28;20184;-75
2022/08/08 05:14:40;;;;;;;25.20;12.50;;;;;;;25.25;63.91;95056.06;5011521;28;20177;-75
2022/08/08 05:17:07;;;;;;;13.95;9.85;;;;;;;25.40;63.96;95056.56;5011066;28;20286;-75
2022/08/08 05:19:34;;;;;;;13.07;8.20;;;;;;;25.62;63.81;95063.19;5010188;28;20259;-73
2022/08/08 05:22:00;;;;;;;17.58;10.32;;;;;;;25.74;63.15;95066.19;5011834;28;20656;-73
2022/08/08 05:24:25;;;;;;;17.75;8.43;;;;;;;25.90;62.86;95064.78;5012152;28;20172;-73
2022/08/08 05:26:51;;;;;;;15.70;8.07;;;;;;;26.05;61.88;95066.34;5012478;28;20259;-73
2022/08/08 05:29:17;;;;;;;9.75;6.88;;;;;;;26.18;61.20;95058.22;5012225;28;20209;-73
2022/08/08 05:31:43;;;;;;;12.73;8.85;;;;;;;26.40;61.05;95071.00;5012366;28;20223;-73
2022/08/08 05:34:19;;;;;;;20.77;11.65;;;;;;;26.57;59.03;95062.22;4994721;28;20568;-73
2022/08/08 05:36:46;;;;;;;13.55;7.75;;;;;;;26.75;58.82;95073.94;5012197;28;20200;-73
2022/08/08 05:39:12;;;;;;;10.95;6.80;;;;;;;26.89;59.38;95074.72;5012046;28;20242;-73
2022/08/08 05:41:40;;;;;;;11.85;6.93;;;;;;;27.08;57.76;95072.59;5011968;28;20932;-73
2022/08/08 05:44:11;;;;;;;11.20;7.40;;;;;;;27.19;57.01;95079.34;5011587;28;20184;-73
2022/08/08 05:46:39;;;;;;;14.07;9.10;;;;;;;27.23;56.70;95072.25;5011625;28;20181;-73
2022/08/08 05:49:06;;;;;;;12.77;7.22;;;;;;;27.36;56.97;95067.84;5011425;28;20207;-73
2022/08/08 05:51:32;;;;;;;15.70;8.32;;;;;;;27.62;56.67;95073.38;5011657;28;20183;-74
2022/08/08 05:53:58;;;;;;;10.63;7.38;;;;;;;27.65;55.57;95051.13;5011710;28;20188;-74
2022/08/08 05:56:26;;;;;;;10.05;5.68;;;;;;;28.01;54.78;95072.56;5011457;28;20263;-74
2022/08/08 05:59:02;;;;;;;6.72;5.70;;;;;;;28.23;55.41;95072.44;5011853;28;20645;-74
2022/08/08 06:01:28;;;;;;;8.77;5.30;;;;;;;28.45;53.70;95069.59;5011461;28;20275;-74
2022/08/08 06:04:02;;;;;;;6.50;5.40;;;;;;;28.70;52.61;95081.56;5011292;28;20259;-74
2022/08/08 06:06:30;;;;;;;6.97;5.32;;;;;;;28.87;51.60;95078.06;5011702;28;20188;-74
2022/08/08 06:09:01;;;;;;;7.03;5.28;;;;;;;28.93;50.04;95054.28;5011502;28;20208;-74
2022/08/08 06:11:31;;;;;;;9.40;5.85;;;;;;;29.22;52.31;95073.38;5011365;28;20275;-74
2022/08/08 06:13:56;;;;;;;12.35;5.47;;;;;;;29.42;51.65;95067.28;5011234;28;20676;-74
2022/08/08 06:16:22;;;;;;;8.95;5.47;;;;;;;29.70;51.14;95053.28;5010491;28;20184;-74
2022/08/08 06:18:50;;;;;;;13.73;6.22;;;;;;;30.07;49.89;95071.47;5011213;28;20274;-74
2022/08/08 06:21:16;;;;;;;6.93;5.72;;;;;;;30.07;49.19;95073.41;5011266;28;20268;-74
2022/08/08 06:23:41;;;;;;;10.90;9.70;;;;;;;30.14;48.18;95074.47;5011423;28;20187;-74
2022/08/08 06:26:10;;;;;;;16.08;5.95;;;;;;;30.31;49.55;95073.56;5011037;28;20176;-74
2022/08/08 06:29:02;;;;;;;10.80;8.73;;;;;;;30.46;47.36;95072.97;5011072;28;20180;-74
2022/08/08 06:31:34;;;;;;;10.77;5.90;;;;;;;30.53;48.06;95078.69;5008892;28;20302;-74
2022/08/08 06:34:18;;;;;;;10.93;7.38;;;;;;;30.67;47.36;95078.44;5010945;28;20552;-74
2022/08/08 06:36:45;;;;;;;10.45;5.70;;;;;;;30.82;47.75;95066.94;5010759;28;20184;-74
2022/08/08 06:39:16;;;;;;;7.90;5.45;;;;;;;30.96;46.79;95085.72;5010723;28;20177;-74
2022/08/08 06:41:55;;;;;;;14.80;7.70;;;;;;;31.05;46.51;95086.41;5011084;28;20641;-74
2022/08/08 06:44:22;;;;;;;6.53;5.03;;;;;;;31.26;46.16;95083.66;5010909;28;20235;-74
2022/08/08 06:46:48;;;;;;;5.95;5.22;;;;;;;31.45;46.39;95086.66;5009189;28;20187;-74
2022/08/08 06:49:13;;;;;;;9.98;7.50;;;;;;;31.59;44.63;95086.34;5010862;28;20563;-74
2022/08/08 06:51:39;;;;;;;7.85;5.25;;;;;;;31.48;45.24;95083.28;4993294;28;20656;-74
2022/08/08 06:54:06;;;;;;;8.20;5.40;;;;;;;31.54;45.23;95086.56;4993324;28;20172;-74
2022/08/08 06:56:33;;;;;;;7.00;5.68;;;;;;;31.53;44.12;95096.66;4993083;28;20947;-74
2022/08/08 06:58:58;;;;;;;8.75;5.43;;;;;;;31.57;44.21;95092.13;5010810;28;20171;-74
2022/08/08 07:01:28;;;;;;;7.28;5.18;;;;;;;31.59;43.94;95091.78;5010419;28;20176;-74
2022/08/08 07:04:06;;;;;;;7.20;5.70;;;;;;;31.56;43.59;95097.91;5012007;28;20177;-74
2022/08/08 07:06:33;;;;;;;7.97;5.82;;;;;;;31.19;44.50;95097.03;5008952;28;20176;-76
2022/08/08 07:09:27;;;;;;;9.43;6.07;;;;;;;31.26;44.98;95095.34;5010197;28;20345;-75
2022/08/08 07:11:57;;;;;;;7.72;5.15;;;;;;;31.43;46.31;95057.06;5002432;28;20191;-74
2022/08/08 07:14:31;;;;;;;12.93;5.63;;;;;;;32.07;46.34;95093.78;5009815;28;20207;-75
2022/08/08 07:16:59;;;;;;;6.00;5.38;;;;;;;32.28;45.59;95091.75;5010270;28;20188;-74
2022/08/08 07:20:01;;;;;;;9.50;7.75;;;;;;;32.54;42.54;95099.53;5010323;28;20251;-74
2022/08/08 07:22:37;;;;;;;8.10;6.13;;;;;;;32.50;43.69;95094.00;5006084;28;20336;-74
2022/08/08 07:25:04;;;;;;;6.63;5.10;;;;;;;32.54;42.81;95089.41;5008037;28;20182;-73
2022/08/08 07:27:40;;;;;;;9.18;5.57;;;;;;;32.67;42.40;95098.38;5010162;28;20180;-74
2022/08/08 07:30:06;;;;;;;6.68;5.35;;;;;;;32.72;43.10;95089.19;5010067;28;20224;-74
2022/08/08 07:32:32;;;;;;;11.02;5.25;;;;;;;32.81;40.00;95098.00;5009348;28;20547;-74
2022/08/08 07:35:00;;;;;;;7.60;5.38;;;;;;;32.65;40.45;95088.94;5008668;28;20184;-74
2022/08/08 07:37:27;;;;;;;6.05;4.43;;;;;;;32.56;42.71;95084.41;5013072;28;20270;-74
2022/08/08 07:39:56;;;;;;;7.93;5.35;;;;;;;32.78;42.77;95069.47;5009907;28;20172;-74
2022/08/08 07:42:23;;;;;;;8.88;5.57;;;;;;;32.94;40.30;95088.66;5007773;28;20192;-74
2022/08/08 07:44:49;;;;;;;10.30;5.97;;;;;;;32.92;39.07;95085.47;4992500;28;20182;-74
2022/08/08 07:47:14;;;;;;;66.78;10.68;;;;;;;32.81;39.78;95092.56;5010078;28;20168;-74
2022/08/08 07:49:40;;;;;;;93.35;12.73;;;;;;;32.55;39.72;95076.56;5010046;28;20176;-74
2022/08/08 07:52:08;;;;;;;63.47;10.60;;;;;;;32.78;39.02;95085.09;5009887;28;20172;-74
2022/08/08 07:54:43;;;;;;;58.60;10.80;;;;;;;32.42;38.39;95080.50;5009144;28;20172;-74
2022/08/08 07:57:38;;;;;;;77.10;13.77;;;;;;;32.38;39.51;95060.50;5009591;28;20203;-74
2022/08/08 08:00:09;;;;;;;61.03;11.50;;;;;;;32.99;39.67;95088.41;5010263;28;20180;-74
2022/08/08 08:02:55;;;;;;;83.82;11.63;;;;;;;32.74;38.25;95087.69;5010115;28;20259;-75
2022/08/08 08:05:25;;;;;;;112.68;17.10;;;;;;;32.46;39.49;95059.56;5009992;28;20259;-74
2022/08/08 08:08:01;;;;;;;116.65;13.00;;;;;;;32.54;39.42;95075.00;5009967;28;20176;-74
2022/08/08 08:10:28;;;;;;;83.80;12.27;;;;;;;32.97;38.38;95074.31;5009509;28;20176;-74
2022/08/08 08:13:19;;;;;;;185.82;21.17;;;;;;;33.04;38.21;95077.22;5009333;28;20684;-74
2022/08/08 08:15:48;;;;;;;120.93;18.10;;;;;;;33.16;38.40;95062.72;5009750;28;20192;-75
2022/08/08 08:18:15;;;;;;;172.32;26.85;;;;;;;33.53;38.04;95066.09;5009602;28;20223;-74
2022/08/08 08:20:42;;;;;;;809.08;116.10;;;;;;;33.81;36.37;95068.75;5009651;28;20267;-74
2022/08/08 08:23:08;;;;;;;9.57;4.40;;;;;;;33.33;35.77;95055.03;4991330;28;20184;-74
2022/08/08 08:25:33;;;;;;;18.60;12.52;;;;;;;33.33;36.93;95071.44;5008789;28;20235;-74
2022/08/08 08:27:59;;;;;;;6.38;4.88;;;;;;;33.01;35.86;95067.03;5009322;28;20642;-73
2022/08/08 08:30:26;;;;;;;7.43;4.20;;;;;;;32.81;37.36;95063.34;5009189;28;20312;-73
2022/08/08 08:32:52;;;;;;;4.65;4.15;;;;;;;33.00;35.40;95070.88;5012519;28;20549;-73
2022/08/08 08:35:18;;;;;;;5.80;3.53;;;;;;;32.45;35.50;95060.69;5011233;28;20246;-74
2022/08/08 08:37:44;;;;;;;7.43;2.90;;;;;;;32.05;35.27;95047.81;5009459;28;20196;-74
2022/08/08 08:40:12;;;;;;;6.03;3.38;;;;;;;31.91;37.77;95044.66;5012614;28;20173;-74
2022/08/08 08:42:39;;;;;;;6.40;3.22;;;;;;;32.19;35.49;95040.09;5012869;28;20173;-74
2022/08/08 08:45:06;;;;;;;5.35;3.53;;;;;;;32.18;34.68;95051.31;5013031;28;20168;-73
2022/08/08 08:47:33;;;;;;;4.50;3.20;;;;;;;32.32;36.97;95046.31;5012910;28;20169;-74
2022/08/08 08:49:58;;;;;;;7.90;3.53;;;;;;;32.54;35.83;95051.25;5013125;28;20562;-73
2022/08/08 08:52:25;;;;;;;7.93;3.33;;;;;;;32.69;34.72;95040.75;5012891;28;20231;-74
2022/08/08 08:54:55;;;;;;;4.22;3.33;;;;;;;33.00;33.92;95051.78;5013324;28;20177;-74
2022/08/08 08:57:22;;;;;;;6.63;3.10;;;;;;;32.09;32.49;95040.50;5012750;28;20208;-74
2022/08/08 08:59:49;;;;;;;5.50;2.85;;;;;;;31.60;33.48;95047.09;4995414;28;20533;-73
2022/08/08 09:02:23;;;;;;;7.40;3.00;;;;;;;31.83;34.28;95040.09;5012729;28;20632;-74
2022/08/08 09:04:54;;;;;;;3.40;2.80;;;;;;;31.99;33.99;95043.72;5012871;28;20177;-73
2022/08/08 09:07:23;;;;;;;4.65;2.83;;;;;;;31.79;33.86;95039.97;5012927;28;20559;-74
2022/08/08 09:09:51;;;;;;;3.03;2.65;;;;;;;31.56;34.18;95035.31;5012549;28;20179;-74
2022/08/08 09:12:20;;;;;;;3.45;2.65;;;;;;;31.63;33.91;95022.75;5012526;28;20176;-73
2022/08/08 09:14:47;;;;;;;9.07;2.92;;;;;;;31.86;33.70;95012.97;5012305;28;20203;-73
2022/08/08 09:17:13;;;;;;;6.88;2.70;;;;;;;31.90;32.85;95023.97;5012322;28;20231;-74
2022/08/08 09:19:40;;;;;;;5.05;2.50;;;;;;;31.40;34.26;95016.88;5012608;28;20272;-73
2022/08/08 09:22:07;;;;;;;3.38;2.50;;;;;;;31.48;31.92;95015.22;5012455;28;20180;-76
2022/08/08 09:24:34;;;;;;;4.03;2.55;;;;;;;31.28;33.04;94997.84;5012525;28;20187;-76
2022/08/08 09:27:07;;;;;;;5.15;2.53;;;;;;;31.59;32.64;95010.91;5012763;28;20226;-75
2022/08/08 09:29:43;;;;;;;4.40;2.38;;;;;;;31.56;32.81;94987.09;4993166;28;20736;-77
2022/08/08 09:32:16;;;;;;;6.97;3.42;;;;;;;31.43;32.80;95007.25;5012854;28;20179;-75
2022/08/08 09:34:48;;;;;;;6.05;2.20;;;;;;;31.56;32.45;94994.47;5011990;28;20263;-74
2022/08/08 09:37:17;;;;;;;7.45;2.58;;;;;;;31.83;33.88;95010.13;5008187;28;20207;-74
2022/08/08 09:40:04;;;;;;;5.45;2.50;;;;;;;31.37;33.34;95003.19;5011941;28;20198;-74
2022/08/08 09:42:38;;;;;;;4.47;2.67;;;;;;;31.21;33.94;95002.25;5011940;28;20258;-74
2022/08/08 09:45:05;;;;;;;4.07;2.67;;;;;;;31.21;34.11;94999.53;5012941;28;20180;-74
2022/08/08 09:47:34;;;;;;;4.32;2.35;;;;;;;31.15;33.29;94968.22;4997710;28;21680;-75
2022/08/08 09:50:03;;;;;;;6.53;2.22;;;;;;;31.50;33.31;94980.28;5010397;28;20169;-75
2022/08/08 09:52:31;;;;;;;3.50;2.38;;;;;;;31.56;32.57;94989.03;5009534;28;20180;-75
2022/08/08 09:54:57;;;;;;;2.58;2.13;;;;;;;31.06;32.91;94977.25;5009422;28;20176;-74
2022/08/08 09:57:45;;;;;;;3.45;2.17;;;;;;;30.96;33.34;94974.97;5008438;28;20192;-74
2022/08/08 10:00:20;;;;;;;3.42;2.45;;;;;;;30.21;34.22;94957.91;5009260;28;20665;-75
2022/08/08 10:02:51;;;;;;;2.80;2.50;;;;;;;30.37;35.07;94994.22;4992915;28;20758;-74
2022/08/08 10:05:19;;;;;;;7.43;2.30;;;;;;;30.21;35.16;94985.09;5010712;28;20181;-74
2022/08/08 10:07:50;;;;;;;4.03;2.40;;;;;;;30.16;34.94;94971.72;5010898;28;20183;-74
2022/08/08 10:10:45;;;;;;;3.90;2.30;;;;;;;30.27;35.08;94978.31;5010075;28;20227;-74
2022/08/08 10:13:18;;;;;;;3.03;2.38;;;;;;;30.49;34.33;94966.31;4993625;28;20563;-74
2022/08/08 10:15:46;;;;;;;4.47;2.50;;;;;;;30.57;34.20;94957.31;5011137;28;20208;-74
2022/08/08 10:18:12;;;;;;;6.28;2.33;;;;;;;30.48;33.79;94955.75;5011001;28;20202;-74
2022/08/08 10:20:44;;;;;;;2.80;2.20;;;;;;;30.09;34.38;94967.94;5010573;28;20176;-74
2022/08/08 10:23:11;;;;;;;2.85;2.28;;;;;;;30.06;35.01;94955.00;5010771;28;20709;-74
2022/08/08 10:25:39;;;;;;;2.63;2.00;;;;;;;30.28;33.79;94954.66;5010761;28;20183;-74
2022/08/08 10:28:07;;;;;;;5.47;2.13;;;;;;;30.47;33.95;94951.44;5010875;28;20179;-75
2022/08/08 10:30:33;;;;;;;5.50;2.20;;;;;;;30.56;32.44;94933.16;5010165;28;20228;-75
2022/08/08 10:33:00;;;;;;;1999.90;999.90;;;;;;;30.66;32.39;94947.13;5010607;28;20611;-74
2022/08/08 10:35:29;;;;;;;1999.90;999.90;;;;;;;30.71;32.31;94948.84;5008967;28;20180;-74
2022/08/08 10:37:59;;;;;;;1999.90;999.90;;;;;;;30.70;31.54;94944.56;5010304;28;20684;-74
2022/08/08 10:40:27;;;;;;;1999.90;999.90;;;;;;;30.56;32.43;94942.13;5010258;28;20653;-74
2022/08/08 10:43:01;;;;;;;1999.90;999.90;;;;;;;30.50;32.63;94948.88;5010273;28;20172;-75
2022/08/08 10:45:28;;;;;;;1999.90;999.90;;;;;;;30.42;32.86;94943.53;5010562;28;20181;-74
2022/08/08 10:47:57;;;;;;;1999.90;999.90;;;;;;;30.20;33.09;94945.44;4992510;28;20600;-74
2022/08/08 10:50:31;;;;;;;1999.90;999.90;;;;;;;30.15;32.98;94942.94;5010045;28;20177;-74
2022/08/08 10:53:03;;;;;;;1999.90;999.90;;;;;;;30.00;33.46;94928.06;5009936;28;20175;-74
2022/08/08 10:55:28;;;;;;;1999.90;999.90;;;;;;;30.25;32.85;94941.75;5010448;28;20185;-74
2022/08/08 11:01:19;;;;;;;1999.90;999.90;;;;;;;30.70;32.38;94939.88;5010742;28;20203;-74
2022/08/08 11:03:44;;;;;;;1999.90;999.90;;;;;;;30.88;31.71;94923.38;5009302;28;20192;-74
2022/08/08 11:06:11;;;;;;;1999.90;999.90;;;;;;;30.91;32.42;94928.16;5010167;28;20642;-75
2022/08/08 11:08:39;;;;;;;1999.90;999.90;;;;;;;30.95;32.23;94910.03;5010820;28;20179;-75
2022/08/08 11:11:10;;;;;;;1999.90;999.90;;;;;;;31.23;31.24;94931.94;5010849;28;20207;-75
2022/08/08 11:13:44;;;;;;;1999.90;999.90;;;;;;;31.14;30.78;94917.69;5009249;28;20239;-75
2022/08/08 11:16:23;;;;;;;1999.90;999.90;;;;;;;31.15;31.07;94927.41;5010914;28;20172;-75
2022/08/08 11:18:49;;;;;;;1999.90;999.90;;;;;;;31.08;30.92;94923.34;5010810;28;20211;-74
2022/08/08 11:21:15;;;;;;;1999.90;999.90;;;;;;;30.86;31.34;94904.72;4993232;28;20184;-75
2022/08/08 11:23:42;;;;;;;1999.90;999.90;;;;;;;30.88;31.61;94920.66;5010885;28;20180;-75
2022/08/08 11:26:11;;;;;;;1999.90;999.90;;;;;;;30.70;32.51;94920.84;4993225;28;20231;-75
2022/08/08 11:28:38;;;;;;;1999.90;999.90;;;;;;;30.61;33.41;94922.09;5022452;28;20179;-75
2022/08/08 11:31:04;;;;;;;1999.90;999.90;;;;;;;30.63;33.40;94917.09;5011265;28;20282;-75
2022/08/08 11:33:33;;;;;;;1999.90;999.90;;;;;;;30.69;33.35;94915.78;5015260;28;20214;-74
2022/08/08 11:35:59;;;;;;;1999.90;999.90;;;;;;;30.82;32.62;94914.66;5012783;28;20215;-75
2022/08/08 11:38:26;;;;;;;1999.90;999.90;;;;;;;30.97;32.96;94911.28;5010829;28;20717;-75
2022/08/08 11:40:53;;;;;;;1999.90;999.90;;;;;;;30.99;32.96;94900.06;4995084;28;20184;-75
2022/08/08 11:43:20;;;;;;;1999.90;999.90;;;;;;;30.95;32.57;94908.13;5010512;28;20188;-75
2022/08/08 11:45:46;;;;;;;1999.90;999.90;;;;;;;30.88;32.64;94898.91;5014914;28;20192;-75
2022/08/08 11:48:13;;;;;;;1999.90;999.90;;;;;;;31.01;33.16;94909.47;5010640;28;20549;-75
2022/08/08 11:50:40;;;;;;;1999.90;999.90;;;;;;;31.04;32.88;94908.81;5010330;28;20180;-75
2022/08/08 11:53:07;;;;;;;1999.90;999.90;;;;;;;30.84;33.17;94914.31;5010386;28;20667;-75
2022/08/08 11:55:34;;;;;;;1999.90;999.90;;;;;;;30.71;33.27;94899.91;5011539;28;20177;-75
2022/08/08 11:58:06;;;;;;;1999.90;999.90;;;;;;;30.85;33.27;94905.84;5010115;28;20208;-75
2022/08/08 12:00:32;;;;;;;1999.90;999.90;;;;;;;30.83;32.82;94910.81;5010422;28;20580;-75